All Spectrum Aviation - Van Nuys Airport - KVNY

HOME

Van Nuys Tower Recordings

Condor Squadron KVNY Webcam

Visit our Electronics Store

Condor Squadron Webcam - Van Nuys Airport - KVNY
Picture taken: Mon, 19 Feb 2018 14:07:19 -0800
YouTube Channel!    Latest Timelapse Movie    Full Size Image    Regular Size Image    

2018/02/19 21:51 KVNY 192151Z 34015G24KT 10SM OVC085 13/M09 A2986 RMK AO2 SLP108 T01331089

HOME

Van Nuys Tower Recordings

Condor Squadron KVNY Webcam

Visit our Electronics Store